createdAt,value
2022-09-20T00:01:24.518Z,6.50
2022-09-20T00:03:54.822Z,8.93
2022-09-20T00:06:25.566Z,6.57
2022-09-20T00:08:53.136Z,7.22
2022-09-20T00:11:22.896Z,10.52
2022-09-20T00:13:51.772Z,3.88
2022-09-20T00:16:22.689Z,10.00
2022-09-20T00:18:52.295Z,6.00
2022-09-20T00:21:22.466Z,7.88
2022-09-20T00:23:50.487Z,8.57
2022-09-20T00:26:17.757Z,6.10
2022-09-20T00:28:46.937Z,14.85
2022-09-20T00:31:15.097Z,8.50
2022-09-20T00:34:01.400Z,6.15
2022-09-20T00:36:29.121Z,6.65
2022-09-20T00:38:58.060Z,6.72
2022-09-20T00:41:25.656Z,4.18
2022-09-20T00:43:53.604Z,10.30
2022-09-20T00:46:23.680Z,5.85
2022-09-20T00:48:59.682Z,4.93
2022-09-20T00:51:33.706Z,5.47
2022-09-20T00:54:03.803Z,9.60
2022-09-20T00:56:38.920Z,6.65
2022-09-20T00:59:25.452Z,9.80
2022-09-20T01:01:57.434Z,6.40
2022-09-20T01:04:27.505Z,7.50
2022-09-20T01:07:00.873Z,6.00
2022-09-20T01:09:28.267Z,6.50
2022-09-20T01:11:57.106Z,11.75
2022-09-20T01:14:26.298Z,6.97
2022-09-20T01:16:57.536Z,12.35
2022-09-20T01:19:43.343Z,7.95
2022-09-20T01:22:26.727Z,13.20
2022-09-20T01:25:15.838Z,7.22
2022-09-20T01:27:48.611Z,7.70
2022-09-20T01:30:25.179Z,9.77
2022-09-20T01:33:29.938Z,4.72
2022-09-20T01:36:03.347Z,9.13
2022-09-20T01:38:40.101Z,7.03
2022-09-20T01:41:23.428Z,7.32
2022-09-20T01:44:13.999Z,9.60
2022-09-20T01:46:43.399Z,6.05
2022-09-20T01:49:43.971Z,8.77
2022-09-20T01:52:38.567Z,4.72
2022-09-20T01:55:11.714Z,8.45
2022-09-20T01:57:46.167Z,5.28
2022-09-20T02:00:26.194Z,6.93
2022-09-20T02:03:02.655Z,9.75
2022-09-20T02:06:07.063Z,6.95
2022-09-20T02:08:46.251Z,5.80
2022-09-20T02:11:18.208Z,6.82
2022-09-20T02:13:54.211Z,8.02
2022-09-20T02:16:48.375Z,7.90
2022-09-20T02:19:34.279Z,7.10
2022-09-20T02:22:26.651Z,5.65
2022-09-20T02:25:08.166Z,7.22
2022-09-20T02:27:53.915Z,5.57
2022-09-20T02:30:46.840Z,7.82
2022-09-20T02:33:35.318Z,7.20
2022-09-20T02:36:08.500Z,11.10
2022-09-20T02:38:44.742Z,7.30
2022-09-20T02:41:39.494Z,7.35
2022-09-20T02:44:28.817Z,7.55
2022-09-20T02:47:16.377Z,8.68
2022-09-20T02:50:05.247Z,8.70
2022-09-20T02:53:02.405Z,8.77
2022-09-20T02:55:43.505Z,7.95
2022-09-20T02:58:33.207Z,10.10
2022-09-20T03:01:11.987Z,7.40
2022-09-20T03:03:56.948Z,8.07
2022-09-20T03:06:35.751Z,6.43
2022-09-20T03:09:23.298Z,7.32
2022-09-20T03:12:16.581Z,11.68
2022-09-20T03:14:59.257Z,10.90
2022-09-20T03:17:51.367Z,5.88
2022-09-20T03:20:34.799Z,17.08
2022-09-20T03:23:41.738Z,8.23
2022-09-20T03:26:50.991Z,7.45
2022-09-20T03:29:41.349Z,10.85
2022-09-20T03:32:26.606Z,11.30
2022-09-20T03:34:57.079Z,10.52
2022-09-20T03:37:55.970Z,9.80
2022-09-20T03:40:46.347Z,8.70
2022-09-20T03:43:32.177Z,8.63
2022-09-20T03:46:21.688Z,9.32
2022-09-20T03:49:26.628Z,12.77
2022-09-20T03:52:24.287Z,7.35
2022-09-20T03:55:06.621Z,9.27
2022-09-20T03:57:52.197Z,9.40
2022-09-20T04:00:23.531Z,8.63
2022-09-20T04:03:16.057Z,10.88
2022-09-20T04:06:20.998Z,9.15
2022-09-20T04:08:53.875Z,7.20
2022-09-20T04:11:45.712Z,8.52
2022-09-20T04:14:31.557Z,9.23
2022-09-20T04:17:02.062Z,11.30
2022-09-20T04:19:33.323Z,6.93
2022-09-20T04:22:01.963Z,10.20
2022-09-20T04:24:38.353Z,7.65
2022-09-20T04:27:16.846Z,8.40
2022-09-20T04:30:07.221Z,11.93
2022-09-20T04:32:48.484Z,10.02
2022-09-20T04:35:51.506Z,12.63
2022-09-20T04:38:20.816Z,10.98
2022-09-20T04:41:06.125Z,8.15
2022-09-20T04:43:51.152Z,10.52
2022-09-20T04:46:39.151Z,14.93
2022-09-20T04:49:52.586Z,11.80
2022-09-20T04:52:38.354Z,10.80
2022-09-20T04:55:44.731Z,7.22
2022-09-20T04:58:46.892Z,9.13
2022-09-20T05:01:30.379Z,12.35
2022-09-20T05:04:08.431Z,8.10
2022-09-20T05:06:57.438Z,11.10
2022-09-20T05:09:49.213Z,13.63
2022-09-20T05:12:41.142Z,13.50
2022-09-20T05:15:35.212Z,9.43
2022-09-20T05:18:33.003Z,7.82
2022-09-20T05:21:03.548Z,10.48
2022-09-20T05:23:33.687Z,7.97
2022-09-20T05:26:09.800Z,11.23
2022-09-20T05:28:56.984Z,9.38
2022-09-20T05:31:45.908Z,10.18
2022-09-20T05:34:34.717Z,8.43
2022-09-20T05:37:24.103Z,9.43
2022-09-20T05:39:57.253Z,6.40
2022-09-20T05:42:42.308Z,10.38
2022-09-20T05:45:25.680Z,10.73
2022-09-20T05:48:13.835Z,11.35
2022-09-20T05:51:06.009Z,9.85
2022-09-20T05:54:18.035Z,7.35
2022-09-20T05:56:56.162Z,9.07
2022-09-20T05:59:48.032Z,15.05
2022-09-20T06:02:33.521Z,8.05
2022-09-20T06:05:10.747Z,13.18
2022-09-20T06:07:46.138Z,11.13
2022-09-20T06:10:26.094Z,9.10
2022-09-20T06:13:20.682Z,12.70
2022-09-20T06:16:11.605Z,10.00
2022-09-20T06:18:58.108Z,14.77
2022-09-20T06:21:41.828Z,7.78
2022-09-20T06:24:27.318Z,7.55
2022-09-20T06:26:56.887Z,9.52
2022-09-20T06:29:35.105Z,8.23
2022-09-20T06:32:02.509Z,11.30
2022-09-20T06:34:30.376Z,8.73
2022-09-20T06:37:39.161Z,7.90
2022-09-20T06:40:35.503Z,8.63
2022-09-20T06:43:03.982Z,8.23
2022-09-20T06:45:32.119Z,9.43
2022-09-20T06:48:00.515Z,9.18
2022-09-20T06:50:27.837Z,7.85
2022-09-20T06:52:55.591Z,6.78
2022-09-20T06:55:29.532Z,11.95
2022-09-20T06:57:57.217Z,9.45
2022-09-20T07:00:24.525Z,7.75
2022-09-20T07:02:51.772Z,8.07
2022-09-20T07:05:21.888Z,8.38
2022-09-20T07:07:49.129Z,7.32
2022-09-20T07:10:16.871Z,7.13
2022-09-20T07:12:44.175Z,10.93
2022-09-20T07:15:12.108Z,5.43
2022-09-20T07:17:39.367Z,5.85
2022-09-20T07:20:06.898Z,6.38
2022-09-20T07:22:34.299Z,11.18
2022-09-20T07:25:02.379Z,8.07
2022-09-20T07:27:30.039Z,9.88
2022-09-20T07:29:57.326Z,5.68
2022-09-20T07:32:24.593Z,5.07
2022-09-20T07:34:51.921Z,6.45
2022-09-20T07:37:19.388Z,6.38
2022-09-20T07:39:46.726Z,6.97
2022-09-20T07:42:14.442Z,6.50
2022-09-20T07:44:43.307Z,4.97
2022-09-20T07:47:11.241Z,6.93
2022-09-20T07:49:38.647Z,7.20
2022-09-20T07:52:05.991Z,4.53
2022-09-20T07:54:33.616Z,5.80
2022-09-20T07:57:02.938Z,3.97
2022-09-20T07:59:30.218Z,4.65
2022-09-20T08:02:00.479Z,6.05
2022-09-20T08:04:27.872Z,5.50
2022-09-20T08:06:55.161Z,6.90
2022-09-20T08:09:22.396Z,4.40
2022-09-20T08:11:50.146Z,5.97
2022-09-20T08:14:18.677Z,5.18
2022-09-20T08:16:48.278Z,6.97
2022-09-20T08:19:21.079Z,4.15
2022-09-20T08:21:49.872Z,6.45
2022-09-20T08:24:17.459Z,7.53
2022-09-20T08:26:44.913Z,5.63
2022-09-20T08:29:14.968Z,3.67
2022-09-20T08:31:42.649Z,5.90
2022-09-20T08:34:12.658Z,5.07
2022-09-20T08:36:42.670Z,4.03
2022-09-20T08:42:12.782Z,5.43
2022-09-20T08:44:59.264Z,6.53
2022-09-20T08:47:33.152Z,4.50
2022-09-20T08:50:09.225Z,6.55
2022-09-20T08:52:39.979Z,4.75
2022-09-20T08:55:16.642Z,5.93
2022-09-20T08:57:48.995Z,4.20
2022-09-20T09:00:19.825Z,3.88
2022-09-20T09:02:47.271Z,4.45
2022-09-20T09:05:34.816Z,4.13
2022-09-20T09:08:16.463Z,3.35
2022-09-20T09:10:54.041Z,5.53
2022-09-20T09:13:56.361Z,3.92
2022-09-20T09:16:34.450Z,4.07
2022-09-20T09:19:33.958Z,4.82
2022-09-20T09:22:04.292Z,8.93
2022-09-20T09:24:31.746Z,3.25
2022-09-20T09:27:28.377Z,6.28
2022-09-20T09:29:56.532Z,6.22
2022-09-20T09:32:32.787Z,3.95
2022-09-20T09:35:23.916Z,6.13
2022-09-20T09:38:03.095Z,6.07
2022-09-20T09:40:32.317Z,1.48
2022-09-20T09:43:04.117Z,4.25
2022-09-20T09:45:38.606Z,2.97
2022-09-20T09:50:48.729Z,3.53
2022-09-20T09:53:24.725Z,4.70
2022-09-20T09:56:21.726Z,3.38
2022-09-20T09:59:08.227Z,2.35
2022-09-20T10:02:02.527Z,3.60
2022-09-20T10:05:01.991Z,3.35
2022-09-20T10:07:49.819Z,3.38
2022-09-20T10:10:22.560Z,1.83
2022-09-20T10:13:14.892Z,1.48
2022-09-20T10:15:53.444Z,2.33
2022-09-20T10:18:45.743Z,3.17
2022-09-20T10:21:31.773Z,2.95
2022-09-20T10:24:30.934Z,2.83
2022-09-20T10:27:08.790Z,2.90
2022-09-20T10:29:47.638Z,2.80
2022-09-20T10:32:23.174Z,3.28
2022-09-20T10:34:56.631Z,6.10
2022-09-20T10:37:23.895Z,3.33
2022-09-20T10:40:20.357Z,3.72
2022-09-20T10:43:09.714Z,1.83
2022-09-20T10:46:27.511Z,4.18
2022-09-20T10:48:52.363Z,3.17
2022-09-20T10:51:39.797Z,1.38
2022-09-20T10:54:15.962Z,2.50
2022-09-20T10:56:47.115Z,3.80
2022-09-20T10:59:43.685Z,3.15
2022-09-20T11:02:11.494Z,4.72
2022-09-20T11:05:08.178Z,4.68
2022-09-20T11:07:53.771Z,4.65
2022-09-20T11:10:26.004Z,4.38
2022-09-20T11:13:08.518Z,4.35
2022-09-20T11:15:45.676Z,5.80
2022-09-20T11:18:24.542Z,4.00
2022-09-20T11:21:24.505Z,4.57
2022-09-20T11:24:13.784Z,3.97
2022-09-20T11:26:54.311Z,4.53
2022-09-20T11:29:27.691Z,2.08
2022-09-20T11:32:06.239Z,2.83
2022-09-20T11:34:43.388Z,2.40
2022-09-20T11:37:10.748Z,5.32
2022-09-20T11:39:41.656Z,6.25
2022-09-20T11:42:17.289Z,3.67
2022-09-20T11:44:47.618Z,4.40
2022-09-20T11:47:50.024Z,3.17
2022-09-20T11:50:38.234Z,4.95
2022-09-20T11:53:21.994Z,2.17
2022-09-20T11:56:15.445Z,3.33
2022-09-20T11:58:51.932Z,2.10
2022-09-20T12:01:34.670Z,4.50
2022-09-20T12:04:42.833Z,3.00
2022-09-20T12:07:18.386Z,2.38
2022-09-20T12:09:54.200Z,1.90
2022-09-20T12:12:45.245Z,2.67
2022-09-20T12:15:21.586Z,3.50
2022-09-20T12:17:49.646Z,2.40
2022-09-20T12:20:35.421Z,5.47
2022-09-20T12:23:42.955Z,3.55
2022-09-20T12:26:38.028Z,4.10
2022-09-20T12:29:32.973Z,1.88
2022-09-20T12:32:03.449Z,4.10
2022-09-20T12:34:37.442Z,3.35
2022-09-20T12:37:07.888Z,5.28
2022-09-20T12:39:38.189Z,4.05
2022-09-20T12:42:11.606Z,2.22
2022-09-20T12:45:15.551Z,1.95
2022-09-20T12:47:53.334Z,4.60
2022-09-20T12:50:41.362Z,4.75
2022-09-20T12:53:15.239Z,3.55
2022-09-20T12:56:07.776Z,4.83
2022-09-20T12:58:55.143Z,4.10
2022-09-20T13:01:22.533Z,4.05
2022-09-20T13:03:50.702Z,2.35
2022-09-20T13:06:19.133Z,3.13
2022-09-20T13:09:01.637Z,2.25
2022-09-20T13:11:56.903Z,1.75
2022-09-20T13:14:31.275Z,1.33
2022-09-20T13:17:04.631Z,1.70
2022-09-20T13:19:38.362Z,4.20
2022-09-20T13:22:17.629Z,2.53
2022-09-20T13:24:48.082Z,2.03
2022-09-20T13:27:28.900Z,5.45
2022-09-20T13:30:28.366Z,2.10
2022-09-20T13:32:55.857Z,1.70
2022-09-20T13:35:32.484Z,0.80
2022-09-20T13:38:04.948Z,0.88
2022-09-20T13:40:35.450Z,1.38
2022-09-20T13:43:23.011Z,3.45
2022-09-20T13:46:15.982Z,2.47
2022-09-20T13:48:47.320Z,1.23
2022-09-20T13:51:26.614Z,1.80
2022-09-20T13:53:54.604Z,1.35
2022-09-20T13:56:23.439Z,1.80
2022-09-20T13:58:51.475Z,2.00
2022-09-20T14:01:33.710Z,6.00
2022-09-20T14:04:08.047Z,2.83
2022-09-20T14:06:36.211Z,2.28
2022-09-20T14:09:10.800Z,2.65
2022-09-20T14:11:40.051Z,4.53
2022-09-20T14:14:19.862Z,3.75
2022-09-20T14:16:50.532Z,4.97
2022-09-20T14:19:20.877Z,4.50
2022-09-20T14:21:49.307Z,1.35
2022-09-20T14:24:17.458Z,2.47
2022-09-20T14:27:20.922Z,3.15
2022-09-20T14:29:52.725Z,3.80
2022-09-20T14:32:20.260Z,1.50
2022-09-20T14:34:56.606Z,3.30
2022-09-20T14:37:42.653Z,1.92
2022-09-20T14:40:29.965Z,1.80
2022-09-20T14:43:05.767Z,2.38
2022-09-20T14:45:34.471Z,3.15
2022-09-20T14:48:26.387Z,4.05
2022-09-20T14:51:16.100Z,2.05
2022-09-20T14:54:13.235Z,3.05
2022-09-20T14:56:49.478Z,5.07
2022-09-20T14:59:20.780Z,3.47
2022-09-20T15:01:59.452Z,3.45
2022-09-20T15:04:31.636Z,3.38
2022-09-20T15:07:04.521Z,1.58
2022-09-20T15:09:32.792Z,3.78
2022-09-20T15:12:06.170Z,1.52
2022-09-20T15:14:37.567Z,2.83
2022-09-20T15:17:06.027Z,3.33
2022-09-20T15:19:34.403Z,2.03
2022-09-20T15:22:01.982Z,4.55
2022-09-20T15:24:37.439Z,2.25
2022-09-20T15:27:10.910Z,3.08
2022-09-20T15:29:38.221Z,2.90
2022-09-20T15:32:05.848Z,2.92
2022-09-20T15:34:33.138Z,1.95
2022-09-20T15:37:00.479Z,3.13
2022-09-20T15:39:27.950Z,5.07
2022-09-20T15:41:55.265Z,1.90
2022-09-20T15:44:22.485Z,4.45
2022-09-20T15:46:51.357Z,1.90
2022-09-20T15:49:18.735Z,3.55
2022-09-20T15:51:46.336Z,5.38
2022-09-20T15:54:15.010Z,2.67
2022-09-20T15:56:42.310Z,3.72
2022-09-20T15:59:11.627Z,9.27
2022-09-20T16:01:44.523Z,5.65
2022-09-20T16:04:21.136Z,4.75
2022-09-20T16:06:50.202Z,3.50
2022-09-20T16:09:18.326Z,3.20
2022-09-20T16:11:47.200Z,3.55
2022-09-20T16:14:15.099Z,2.65
2022-09-20T16:16:42.476Z,5.70
2022-09-20T16:19:23.880Z,11.23
2022-09-20T16:21:58.544Z,10.55
2022-09-20T16:24:29.004Z,6.10
2022-09-20T16:26:57.438Z,3.45
2022-09-20T16:29:25.877Z,3.92
2022-09-20T16:31:54.388Z,6.10
2022-09-20T16:34:29.625Z,5.57
2022-09-20T16:37:01.129Z,4.72
2022-09-20T16:39:30.344Z,4.40
2022-09-20T16:42:04.595Z,4.18
2022-09-20T16:44:45.750Z,9.43
2022-09-20T16:47:22.050Z,11.02
2022-09-20T16:49:50.517Z,4.30
2022-09-20T16:52:17.906Z,7.88
2022-09-20T16:54:46.660Z,5.45
2022-09-20T16:57:14.469Z,4.80
2022-09-20T16:59:42.199Z,5.32
2022-09-20T17:02:12.269Z,5.82
2022-09-20T17:04:39.861Z,5.97
2022-09-20T17:07:07.581Z,3.60
2022-09-20T17:09:34.915Z,3.47
2022-09-20T17:12:04.286Z,3.17
2022-09-20T17:14:31.579Z,3.50
2022-09-20T17:16:58.833Z,4.43
2022-09-20T17:19:26.610Z,3.95
2022-09-20T17:21:53.902Z,4.70
2022-09-20T17:24:22.609Z,3.55
2022-09-20T17:26:51.593Z,6.40
2022-09-20T17:29:20.016Z,3.22
2022-09-20T17:31:54.950Z,2.58
2022-09-20T17:34:24.625Z,2.78
2022-09-20T17:36:54.072Z,3.08
2022-09-20T17:39:21.319Z,5.32
2022-09-20T17:41:50.565Z,2.92
2022-09-20T17:44:19.299Z,5.65
2022-09-20T17:46:49.499Z,4.13
2022-09-20T17:49:39.050Z,4.15
2022-09-20T17:52:08.007Z,2.35
2022-09-20T17:54:35.250Z,5.95
2022-09-20T17:57:02.613Z,8.23
2022-09-20T17:59:29.882Z,6.53
2022-09-20T18:01:57.155Z,4.55
2022-09-20T18:04:25.061Z,5.70
2022-09-20T18:06:54.100Z,5.63
2022-09-20T18:09:25.721Z,3.38
2022-09-20T18:11:54.755Z,5.35
2022-09-20T18:14:31.373Z,15.45
2022-09-20T18:17:01.362Z,3.75
2022-09-20T18:19:33.454Z,2.72
2022-09-20T18:22:01.952Z,5.65
2022-09-20T18:24:30.211Z,4.70
2022-09-20T18:26:57.697Z,5.10
2022-09-20T18:29:26.027Z,5.18
2022-09-20T18:31:54.511Z,2.95
2022-09-20T18:34:23.739Z,2.72
2022-09-20T18:36:53.477Z,4.80
2022-09-20T18:39:25.327Z,3.90
2022-09-20T18:41:53.517Z,5.20
2022-09-20T18:44:22.235Z,7.20
2022-09-20T18:46:51.476Z,5.10
2022-09-20T18:49:20.557Z,2.75
2022-09-20T18:51:48.757Z,2.20
2022-09-20T18:54:16.782Z,4.43
2022-09-20T18:56:46.144Z,3.97
2022-09-20T18:59:25.279Z,4.50
2022-09-20T19:02:04.315Z,3.63
2022-09-20T19:05:13.961Z,8.27
2022-09-20T19:07:41.252Z,5.43
2022-09-20T19:10:45.535Z,6.68
2022-09-20T19:13:38.920Z,5.20
2022-09-20T19:16:12.091Z,10.35
2022-09-20T19:18:59.647Z,5.13
2022-09-20T19:22:03.678Z,11.30
2022-09-20T19:24:50.044Z,6.65
2022-09-20T19:27:17.508Z,5.82
2022-09-20T19:29:45.160Z,8.05
2022-09-20T19:32:21.604Z,7.80
2022-09-20T19:35:01.415Z,8.82
2022-09-20T19:37:54.090Z,7.50
2022-09-20T19:40:35.593Z,6.32
2022-09-20T19:43:45.198Z,8.95
2022-09-20T19:47:09.497Z,17.15
2022-09-20T19:50:02.785Z,15.30
2022-09-20T19:52:30.956Z,19.48
2022-09-20T19:54:58.520Z,17.70
2022-09-20T19:57:39.646Z,11.98
2022-09-20T20:00:10.126Z,12.63
2022-09-20T20:02:37.685Z,25.35
2022-09-20T20:05:05.677Z,34.35
2022-09-20T20:08:07.876Z,26.35
2022-09-20T20:11:11.873Z,28.77
2022-09-20T20:14:03.781Z,18.92
2022-09-20T20:16:52.297Z,17.70
2022-09-20T20:19:49.211Z,19.67
2022-09-20T20:22:38.402Z,21.35
2022-09-20T20:25:16.009Z,17.88
2022-09-20T20:27:43.314Z,14.43
2022-09-20T20:30:11.132Z,17.48
2022-09-20T20:32:38.407Z,15.75
2022-09-20T20:35:06.387Z,7.63
2022-09-20T20:37:35.020Z,9.82
2022-09-20T20:40:02.502Z,14.98
2022-09-20T20:42:29.811Z,10.68
2022-09-20T20:44:58.108Z,12.23
2022-09-20T20:47:25.581Z,12.02
2022-09-20T20:49:55.009Z,11.85
2022-09-20T20:52:22.222Z,10.85
2022-09-20T20:54:49.593Z,9.75
2022-09-20T20:57:18.859Z,12.60
2022-09-20T20:59:46.170Z,10.52
2022-09-20T21:02:13.659Z,11.20
2022-09-20T21:04:41.106Z,15.00
2022-09-20T21:07:08.408Z,12.38
2022-09-20T21:09:35.924Z,13.68
2022-09-20T21:12:03.305Z,17.52
2022-09-20T21:14:31.900Z,19.80
2022-09-20T21:16:59.207Z,18.63
2022-09-20T21:19:26.494Z,18.10
2022-09-20T21:21:53.742Z,15.27
2022-09-20T21:24:21.097Z,14.68
2022-09-20T21:26:48.509Z,18.45
2022-09-20T21:29:16.616Z,22.75
2022-09-20T21:31:45.708Z,19.15
2022-09-20T21:34:17.070Z,7.22
2022-09-20T21:36:44.686Z,6.78
2022-09-20T21:39:12.729Z,7.00
2022-09-20T21:41:41.671Z,8.77
2022-09-20T21:44:12.289Z,6.65
2022-09-20T21:46:41.872Z,8.25
2022-09-20T21:49:11.121Z,6.88
2022-09-20T21:51:41.324Z,5.82
2022-09-20T21:54:09.443Z,6.63
2022-09-20T21:56:41.196Z,6.05
2022-09-20T21:59:09.371Z,7.30
2022-09-20T22:01:39.221Z,12.13
2022-09-20T22:04:11.737Z,7.28
2022-09-20T22:06:43.806Z,6.20
2022-09-20T22:09:16.125Z,6.38
2022-09-20T22:11:45.767Z,5.72
2022-09-20T22:14:15.057Z,6.38
2022-09-20T22:16:43.776Z,6.85
2022-09-20T22:19:13.279Z,7.13
2022-09-20T22:21:43.564Z,9.00
2022-09-20T22:24:12.237Z,7.35
2022-09-20T22:26:43.584Z,5.40
2022-09-20T22:29:11.138Z,4.30
2022-09-20T22:31:45.418Z,6.40
2022-09-20T22:34:20.977Z,9.43
2022-09-20T22:36:48.882Z,6.53
2022-09-20T22:39:17.074Z,12.70
2022-09-20T22:41:47.651Z,9.75
2022-09-20T22:44:15.004Z,8.13
2022-09-20T22:46:42.259Z,8.55
2022-09-20T22:49:09.833Z,5.88
2022-09-20T22:51:37.836Z,5.55
2022-09-20T22:54:07.559Z,5.85
2022-09-20T22:56:36.204Z,8.18
2022-09-20T22:59:09.243Z,10.40
2022-09-20T23:01:45.374Z,10.70
2022-09-20T23:04:15.681Z,9.50
2022-09-20T23:06:46.912Z,7.28
2022-09-20T23:09:16.566Z,8.30
2022-09-20T23:11:44.483Z,9.80
2022-09-20T23:14:17.909Z,12.57
2022-09-20T23:16:45.721Z,6.03
2022-09-20T23:19:13.805Z,6.50
2022-09-20T23:21:45.130Z,7.18
2022-09-20T23:24:14.698Z,6.60
2022-09-20T23:26:43.461Z,6.05
2022-09-20T23:29:16.218Z,8.65
2022-09-20T23:31:46.666Z,7.40
2022-09-20T23:34:15.414Z,8.27
2022-09-20T23:36:43.193Z,5.55
2022-09-20T23:39:11.627Z,7.82
2022-09-20T23:41:39.014Z,12.65
2022-09-20T23:44:07.337Z,7.28
2022-09-20T23:46:37.209Z,8.07
2022-09-20T23:49:06.502Z,9.57
2022-09-20T23:51:35.304Z,6.60
2022-09-20T23:54:02.803Z,7.13
2022-09-20T23:56:30.546Z,9.57
2022-09-20T23:58:57.831Z,9.93
